sensor_id;sensor_type;location;lat;lon;timestamp;P1;durP1;ratioP1;P2;durP2;ratioP2
85695;SDS011;76240;50.902;3.892;2024-02-26T00:01:49;6.82;;;2.50;;
85695;SDS011;76240;50.902;3.892;2024-02-26T00:04:15;5.72;;;2.17;;
85695;SDS011;76240;50.902;3.892;2024-02-26T00:06:41;7.07;;;2.47;;
85695;SDS011;76240;50.902;3.892;2024-02-26T00:09:08;6.30;;;2.20;;
85695;SDS011;76240;50.902;3.892;2024-02-26T00:11:37;6.32;;;2.35;;
85695;SDS011;76240;50.902;3.892;2024-02-26T00:14:04;6.97;;;2.40;;
85695;SDS011;76240;50.902;3.892;2024-02-26T00:16:30;8.68;;;2.45;;
85695;SDS011;76240;50.902;3.892;2024-02-26T00:18:57;6.95;;;2.10;;
85695;SDS011;76240;50.902;3.892;2024-02-26T00:21:23;6.13;;;2.17;;
85695;SDS011;76240;50.902;3.892;2024-02-26T00:23:49;6.15;;;2.60;;
85695;SDS011;76240;50.902;3.892;2024-02-26T00:26:16;8.40;;;2.00;;
85695;SDS011;76240;50.902;3.892;2024-02-26T00:28:42;7.38;;;2.17;;
85695;SDS011;76240;50.902;3.892;2024-02-26T00:31:08;6.80;;;2.70;;
85695;SDS011;76240;50.902;3.892;2024-02-26T00:33:34;5.40;;;2.13;;
85695;SDS011;76240;50.902;3.892;2024-02-26T00:36:00;6.45;;;2.28;;
85695;SDS011;76240;50.902;3.892;2024-02-26T00:38:26;7.13;;;2.08;;
85695;SDS011;76240;50.902;3.892;2024-02-26T00:40:52;6.05;;;2.17;;
85695;SDS011;76240;50.902;3.892;2024-02-26T00:43:18;5.50;;;2.22;;
85695;SDS011;76240;50.902;3.892;2024-02-26T00:45:44;4.15;;;1.90;;
85695;SDS011;76240;50.902;3.892;2024-02-26T00:48:11;8.77;;;2.30;;
85695;SDS011;76240;50.902;3.892;2024-02-26T00:50:39;6.25;;;2.40;;
85695;SDS011;76240;50.902;3.892;2024-02-26T00:53:05;7.00;;;2.22;;
85695;SDS011;76240;50.902;3.892;2024-02-26T00:55:31;7.43;;;2.63;;
85695;SDS011;76240;50.902;3.892;2024-02-26T00:57:57;6.10;;;1.85;;
85695;SDS011;76240;50.902;3.892;2024-02-26T01:00:23;4.22;;;1.85;;
85695;SDS011;76240;50.902;3.892;2024-02-26T01:02:49;5.03;;;1.70;;
85695;SDS011;76240;50.902;3.892;2024-02-26T01:05:15;4.95;;;2.40;;
85695;SDS011;76240;50.902;3.892;2024-02-26T01:07:41;5.30;;;2.25;;
85695;SDS011;76240;50.902;3.892;2024-02-26T01:10:07;6.35;;;2.20;;
85695;SDS011;76240;50.902;3.892;2024-02-26T01:12:34;3.50;;;1.70;;
85695;SDS011;76240;50.902;3.892;2024-02-26T01:15:00;5.25;;;2.17;;
85695;SDS011;76240;50.902;3.892;2024-02-26T01:17:28;5.82;;;2.08;;
85695;SDS011;76240;50.902;3.892;2024-02-26T01:19:54;5.15;;;2.17;;
85695;SDS011;76240;50.902;3.892;2024-02-26T01:22:20;6.90;;;2.08;;
85695;SDS011;76240;50.902;3.892;2024-02-26T01:24:46;4.03;;;1.85;;
85695;SDS011;76240;50.902;3.892;2024-02-26T01:27:12;6.07;;;2.38;;
85695;SDS011;76240;50.902;3.892;2024-02-26T01:29:39;4.60;;;1.80;;
85695;SDS011;76240;50.902;3.892;2024-02-26T01:32:05;4.65;;;1.88;;
85695;SDS011;76240;50.902;3.892;2024-02-26T01:34:31;4.28;;;1.70;;
85695;SDS011;76240;50.902;3.892;2024-02-26T01:36:58;5.05;;;2.05;;
85695;SDS011;76240;50.902;3.892;2024-02-26T01:39:24;4.43;;;1.80;;
85695;SDS011;76240;50.902;3.892;2024-02-26T01:41:49;7.47;;;2.10;;
85695;SDS011;76240;50.902;3.892;2024-02-26T01:44:15;5.97;;;1.80;;
85695;SDS011;76240;50.902;3.892;2024-02-26T01:46:41;5.75;;;1.85;;
85695;SDS011;76240;50.902;3.892;2024-02-26T01:49:08;3.05;;;1.60;;
85695;SDS011;76240;50.902;3.892;2024-02-26T01:51:37;6.15;;;1.92;;
85695;SDS011;76240;50.902;3.892;2024-02-26T01:54:05;5.03;;;2.15;;
85695;SDS011;76240;50.902;3.892;2024-02-26T01:56:33;5.00;;;1.92;;
85695;SDS011;76240;50.902;3.892;2024-02-26T01:59:00;6.10;;;1.60;;
85695;SDS011;76240;50.902;3.892;2024-02-26T02:01:30;4.47;;;1.67;;
85695;SDS011;76240;50.902;3.892;2024-02-26T02:03:57;6.13;;;1.70;;
85695;SDS011;76240;50.902;3.892;2024-02-26T02:06:24;4.20;;;1.73;;
85695;SDS011;76240;50.902;3.892;2024-02-26T02:08:52;3.88;;;1.50;;
85695;SDS011;76240;50.902;3.892;2024-02-26T02:11:19;5.80;;;1.58;;
85695;SDS011;76240;50.902;3.892;2024-02-26T02:13:45;6.47;;;1.98;;
85695;SDS011;76240;50.902;3.892;2024-02-26T02:16:11;2.63;;;1.30;;
85695;SDS011;76240;50.902;3.892;2024-02-26T02:18:38;2.88;;;1.48;;
85695;SDS011;76240;50.902;3.892;2024-02-26T02:21:04;5.28;;;2.67;;
85695;SDS011;76240;50.902;3.892;2024-02-26T02:23:29;5.38;;;1.60;;
85695;SDS011;76240;50.902;3.892;2024-02-26T02:25:56;3.00;;;1.65;;
85695;SDS011;76240;50.902;3.892;2024-02-26T02:28:23;3.33;;;1.58;;
85695;SDS011;76240;50.902;3.892;2024-02-26T02:30:51;6.50;;;2.03;;
85695;SDS011;76240;50.902;3.892;2024-02-26T02:33:17;5.53;;;1.77;;
85695;SDS011;76240;50.902;3.892;2024-02-26T02:35:43;5.00;;;1.70;;
85695;SDS011;76240;50.902;3.892;2024-02-26T02:38:09;5.75;;;2.00;;
85695;SDS011;76240;50.902;3.892;2024-02-26T02:40:35;4.25;;;1.80;;
85695;SDS011;76240;50.902;3.892;2024-02-26T02:43:01;4.35;;;1.77;;
85695;SDS011;76240;50.902;3.892;2024-02-26T02:45:27;3.97;;;1.92;;
85695;SDS011;76240;50.902;3.892;2024-02-26T02:47:54;3.97;;;1.77;;
85695;SDS011;76240;50.902;3.892;2024-02-26T02:50:19;6.13;;;1.95;;
85695;SDS011;76240;50.902;3.892;2024-02-26T02:52:45;7.13;;;2.42;;
85695;SDS011;76240;50.902;3.892;2024-02-26T02:55:12;6.22;;;2.10;;
85695;SDS011;76240;50.902;3.892;2024-02-26T02:57:39;7.13;;;2.25;;
85695;SDS011;76240;50.902;3.892;2024-02-26T03:00:08;5.18;;;2.13;;
85695;SDS011;76240;50.902;3.892;2024-02-26T03:02:34;5.47;;;2.15;;
85695;SDS011;76240;50.902;3.892;2024-02-26T03:05:03;5.53;;;2.20;;
85695;SDS011;76240;50.902;3.892;2024-02-26T03:07:30;4.93;;;2.10;;
85695;SDS011;76240;50.902;3.892;2024-02-26T03:09:56;5.95;;;2.55;;
85695;SDS011;76240;50.902;3.892;2024-02-26T03:12:22;7.75;;;2.75;;
85695;SDS011;76240;50.902;3.892;2024-02-26T03:14:48;4.80;;;2.28;;
85695;SDS011;76240;50.902;3.892;2024-02-26T03:17:13;5.90;;;2.60;;
85695;SDS011;76240;50.902;3.892;2024-02-26T03:19:39;6.47;;;2.85;;
85695;SDS011;76240;50.902;3.892;2024-02-26T03:22:05;5.15;;;2.30;;
85695;SDS011;76240;50.902;3.892;2024-02-26T03:24:32;5.13;;;2.50;;
85695;SDS011;76240;50.902;3.892;2024-02-26T03:26:58;5.65;;;2.83;;
85695;SDS011;76240;50.902;3.892;2024-02-26T03:29:23;6.38;;;3.10;;
85695;SDS011;76240;50.902;3.892;2024-02-26T03:31:49;6.20;;;2.92;;
85695;SDS011;76240;50.902;3.892;2024-02-26T03:34:15;7.05;;;3.45;;
85695;SDS011;76240;50.902;3.892;2024-02-26T03:36:43;7.38;;;3.67;;
85695;SDS011;76240;50.902;3.892;2024-02-26T03:39:08;9.48;;;4.43;;
85695;SDS011;76240;50.902;3.892;2024-02-26T03:41:34;6.28;;;3.15;;
85695;SDS011;76240;50.902;3.892;2024-02-26T03:44:01;9.48;;;3.67;;
85695;SDS011;76240;50.902;3.892;2024-02-26T03:46:27;8.43;;;3.70;;
85695;SDS011;76240;50.902;3.892;2024-02-26T03:48:53;6.65;;;3.50;;
85695;SDS011;76240;50.902;3.892;2024-02-26T03:51:19;7.05;;;3.65;;
85695;SDS011;76240;50.902;3.892;2024-02-26T03:53:45;8.43;;;4.40;;
85695;SDS011;76240;50.902;3.892;2024-02-26T03:56:11;8.48;;;2.95;;
85695;SDS011;76240;50.902;3.892;2024-02-26T03:58:40;7.82;;;3.97;;
85695;SDS011;76240;50.902;3.892;2024-02-26T04:01:07;7.20;;;3.97;;
85695;SDS011;76240;50.902;3.892;2024-02-26T04:03:34;7.03;;;3.58;;
85695;SDS011;76240;50.902;3.892;2024-02-26T04:06:00;7.95;;;3.97;;
85695;SDS011;76240;50.902;3.892;2024-02-26T04:08:26;9.15;;;5.28;;
85695;SDS011;76240;50.902;3.892;2024-02-26T04:10:52;8.38;;;4.53;;
85695;SDS011;76240;50.902;3.892;2024-02-26T04:13:19;8.15;;;4.30;;
85695;SDS011;76240;50.902;3.892;2024-02-26T04:15:45;10.23;;;4.70;;
85695;SDS011;76240;50.902;3.892;2024-02-26T04:18:12;8.57;;;5.07;;
85695;SDS011;76240;50.902;3.892;2024-02-26T04:20:39;10.13;;;5.15;;
85695;SDS011;76240;50.902;3.892;2024-02-26T04:23:07;9.18;;;4.50;;
85695;SDS011;76240;50.902;3.892;2024-02-26T04:25:33;11.05;;;5.15;;
85695;SDS011;76240;50.902;3.892;2024-02-26T04:27:59;11.65;;;5.43;;
85695;SDS011;76240;50.902;3.892;2024-02-26T04:30:25;10.75;;;6.10;;
85695;SDS011;76240;50.902;3.892;2024-02-26T04:32:51;8.88;;;5.28;;
85695;SDS011;76240;50.902;3.892;2024-02-26T04:35:17;9.57;;;5.35;;
85695;SDS011;76240;50.902;3.892;2024-02-26T04:37:43;10.07;;;5.38;;
85695;SDS011;76240;50.902;3.892;2024-02-26T04:40:09;11.02;;;5.28;;
85695;SDS011;76240;50.902;3.892;2024-02-26T04:42:35;13.43;;;6.18;;
85695;SDS011;76240;50.902;3.892;2024-02-26T04:45:01;13.00;;;5.55;;
85695;SDS011;76240;50.902;3.892;2024-02-26T04:47:27;9.23;;;5.47;;
85695;SDS011;76240;50.902;3.892;2024-02-26T04:49:53;12.25;;;6.53;;
85695;SDS011;76240;50.902;3.892;2024-02-26T04:52:19;11.73;;;5.70;;
85695;SDS011;76240;50.902;3.892;2024-02-26T04:54:45;11.50;;;6.85;;
85695;SDS011;76240;50.902;3.892;2024-02-26T04:57:11;12.13;;;6.85;;
85695;SDS011;76240;50.902;3.892;2024-02-26T04:59:37;12.52;;;6.70;;
85695;SDS011;76240;50.902;3.892;2024-02-26T05:02:03;15.13;;;7.85;;
85695;SDS011;76240;50.902;3.892;2024-02-26T05:04:29;12.95;;;6.95;;
85695;SDS011;76240;50.902;3.892;2024-02-26T05:06:55;14.13;;;7.90;;
85695;SDS011;76240;50.902;3.892;2024-02-26T05:09:21;12.48;;;7.03;;
85695;SDS011;76240;50.902;3.892;2024-02-26T05:11:47;12.15;;;7.10;;
85695;SDS011;76240;50.902;3.892;2024-02-26T05:14:13;13.57;;;8.45;;
85695;SDS011;76240;50.902;3.892;2024-02-26T05:16:41;16.70;;;8.85;;
85695;SDS011;76240;50.902;3.892;2024-02-26T05:19:07;12.32;;;7.50;;
85695;SDS011;76240;50.902;3.892;2024-02-26T05:21:33;12.73;;;7.68;;
85695;SDS011;76240;50.902;3.892;2024-02-26T05:23:59;13.35;;;8.15;;
85695;SDS011;76240;50.902;3.892;2024-02-26T05:26:26;17.15;;;9.90;;
85695;SDS011;76240;50.902;3.892;2024-02-26T05:28:52;14.20;;;8.00;;
85695;SDS011;76240;50.902;3.892;2024-02-26T05:31:17;12.38;;;8.10;;
85695;SDS011;76240;50.902;3.892;2024-02-26T05:33:43;14.27;;;9.35;;
85695;SDS011;76240;50.902;3.892;2024-02-26T05:36:09;14.23;;;8.70;;
85695;SDS011;76240;50.902;3.892;2024-02-26T05:38:36;13.65;;;8.02;;
85695;SDS011;76240;50.902;3.892;2024-02-26T05:41:02;13.35;;;8.98;;
85695;SDS011;76240;50.902;3.892;2024-02-26T05:43:29;11.43;;;7.03;;
85695;SDS011;76240;50.902;3.892;2024-02-26T05:45:55;16.38;;;10.27;;
85695;SDS011;76240;50.902;3.892;2024-02-26T05:48:21;15.07;;;9.60;;
85695;SDS011;76240;50.902;3.892;2024-02-26T05:50:47;13.65;;;8.55;;
85695;SDS011;76240;50.902;3.892;2024-02-26T05:53:13;13.60;;;9.35;;
85695;SDS011;76240;50.902;3.892;2024-02-26T05:55:39;14.85;;;8.05;;
85695;SDS011;76240;50.902;3.892;2024-02-26T05:58:05;12.18;;;7.15;;
85695;SDS011;76240;50.902;3.892;2024-02-26T06:00:31;9.68;;;6.15;;
85695;SDS011;76240;50.902;3.892;2024-02-26T06:02:57;13.90;;;8.55;;
85695;SDS011;76240;50.902;3.892;2024-02-26T06:05:23;13.90;;;8.13;;
85695;SDS011;76240;50.902;3.892;2024-02-26T06:07:48;12.15;;;7.45;;
85695;SDS011;76240;50.902;3.892;2024-02-26T06:10:14;12.30;;;7.03;;
85695;SDS011;76240;50.902;3.892;2024-02-26T06:12:40;14.07;;;8.02;;
85695;SDS011;76240;50.902;3.892;2024-02-26T06:15:07;12.48;;;7.40;;
85695;SDS011;76240;50.902;3.892;2024-02-26T06:17:33;11.35;;;7.00;;
85695;SDS011;76240;50.902;3.892;2024-02-26T06:19:59;14.50;;;5.82;;
85695;SDS011;76240;50.902;3.892;2024-02-26T06:22:26;12.32;;;8.10;;
85695;SDS011;76240;50.902;3.892;2024-02-26T06:24:52;12.82;;;7.85;;
85695;SDS011;76240;50.902;3.892;2024-02-26T06:27:18;13.93;;;7.88;;
85695;SDS011;76240;50.902;3.892;2024-02-26T06:29:44;12.40;;;7.85;;
85695;SDS011;76240;50.902;3.892;2024-02-26T06:32:09;12.43;;;7.57;;
85695;SDS011;76240;50.902;3.892;2024-02-26T06:34:35;11.05;;;6.60;;
85695;SDS011;76240;50.902;3.892;2024-02-26T06:37:03;11.05;;;6.63;;
85695;SDS011;76240;50.902;3.892;2024-02-26T06:39:29;9.80;;;6.47;;
85695;SDS011;76240;50.902;3.892;2024-02-26T06:41:55;11.23;;;7.10;;
85695;SDS011;76240;50.902;3.892;2024-02-26T06:44:25;9.40;;;6.00;;
85695;SDS011;76240;50.902;3.892;2024-02-26T06:46:57;12.63;;;7.53;;
85695;SDS011;76240;50.902;3.892;2024-02-26T06:49:24;11.95;;;7.47;;
85695;SDS011;76240;50.902;3.892;2024-02-26T06:51:51;12.57;;;7.38;;
85695;SDS011;76240;50.902;3.892;2024-02-26T06:54:17;10.35;;;6.95;;
85695;SDS011;76240;50.902;3.892;2024-02-26T06:56:44;11.43;;;7.57;;
85695;SDS011;76240;50.902;3.892;2024-02-26T06:59:09;10.73;;;6.78;;
85695;SDS011;76240;50.902;3.892;2024-02-26T07:01:35;12.73;;;6.95;;
85695;SDS011;76240;50.902;3.892;2024-02-26T07:04:01;11.80;;;6.78;;
85695;SDS011;76240;50.902;3.892;2024-02-26T07:06:27;10.85;;;6.68;;
85695;SDS011;76240;50.902;3.892;2024-02-26T07:08:54;10.57;;;6.97;;
85695;SDS011;76240;50.902;3.892;2024-02-26T07:11:20;12.05;;;7.03;;
85695;SDS011;76240;50.902;3.892;2024-02-26T07:13:46;10.98;;;7.15;;
85695;SDS011;76240;50.902;3.892;2024-02-26T07:16:12;13.35;;;7.20;;
85695;SDS011;76240;50.902;3.892;2024-02-26T07:18:41;10.57;;;6.72;;
85695;SDS011;76240;50.902;3.892;2024-02-26T07:21:08;12.05;;;8.07;;
85695;SDS011;76240;50.902;3.892;2024-02-26T07:23:34;11.05;;;7.68;;
85695;SDS011;76240;50.902;3.892;2024-02-26T07:26:00;11.68;;;8.27;;
85695;SDS011;76240;50.902;3.892;2024-02-26T07:28:26;13.82;;;9.13;;
85695;SDS011;76240;50.902;3.892;2024-02-26T07:30:52;13.93;;;9.00;;
85695;SDS011;76240;50.902;3.892;2024-02-26T07:33:18;12.95;;;8.48;;
85695;SDS011;76240;50.902;3.892;2024-02-26T07:35:44;12.60;;;7.85;;
85695;SDS011;76240;50.902;3.892;2024-02-26T07:38:10;13.85;;;8.43;;
85695;SDS011;76240;50.902;3.892;2024-02-26T07:40:38;14.60;;;9.93;;
85695;SDS011;76240;50.902;3.892;2024-02-26T07:43:03;12.77;;;8.70;;
85695;SDS011;76240;50.902;3.892;2024-02-26T07:45:30;13.88;;;7.80;;
85695;SDS011;76240;50.902;3.892;2024-02-26T07:47:55;13.07;;;8.68;;
85695;SDS011;76240;50.902;3.892;2024-02-26T07:50:21;14.15;;;8.38;;
85695;SDS011;76240;50.902;3.892;2024-02-26T07:52:47;13.13;;;8.80;;
85695;SDS011;76240;50.902;3.892;2024-02-26T07:55:13;13.40;;;8.98;;
85695;SDS011;76240;50.902;3.892;2024-02-26T07:57:41;11.00;;;7.15;;
85695;SDS011;76240;50.902;3.892;2024-02-26T08:00:09;13.07;;;8.25;;
85695;SDS011;76240;50.902;3.892;2024-02-26T08:02:35;10.98;;;7.57;;
85695;SDS011;76240;50.902;3.892;2024-02-26T08:05:01;11.00;;;7.25;;
85695;SDS011;76240;50.902;3.892;2024-02-26T08:07:27;10.65;;;6.35;;
85695;SDS011;76240;50.902;3.892;2024-02-26T08:09:53;11.55;;;7.07;;
85695;SDS011;76240;50.902;3.892;2024-02-26T08:12:19;12.30;;;8.50;;
85695;SDS011;76240;50.902;3.892;2024-02-26T08:14:45;11.82;;;7.05;;
85695;SDS011;76240;50.902;3.892;2024-02-26T08:17:12;11.00;;;7.20;;
85695;SDS011;76240;50.902;3.892;2024-02-26T08:19:37;13.15;;;7.00;;
85695;SDS011;76240;50.902;3.892;2024-02-26T08:22:04;11.90;;;7.57;;
85695;SDS011;76240;50.902;3.892;2024-02-26T08:24:30;10.63;;;7.03;;
85695;SDS011;76240;50.902;3.892;2024-02-26T08:26:56;8.93;;;5.22;;
85695;SDS011;76240;50.902;3.892;2024-02-26T08:29:21;13.15;;;7.65;;
85695;SDS011;76240;50.902;3.892;2024-02-26T08:31:47;11.85;;;7.53;;
85695;SDS011;76240;50.902;3.892;2024-02-26T08:34:14;11.23;;;7.43;;
85695;SDS011;76240;50.902;3.892;2024-02-26T08:36:39;12.60;;;6.38;;
85695;SDS011;76240;50.902;3.892;2024-02-26T08:39:06;10.48;;;6.47;;
85695;SDS011;76240;50.902;3.892;2024-02-26T08:41:34;10.73;;;6.85;;
85695;SDS011;76240;50.902;3.892;2024-02-26T08:43:59;11.48;;;6.97;;
85695;SDS011;76240;50.902;3.892;2024-02-26T08:46:25;9.25;;;5.88;;
85695;SDS011;76240;50.902;3.892;2024-02-26T08:48:51;11.15;;;7.13;;
85695;SDS011;76240;50.902;3.892;2024-02-26T08:51:17;9.55;;;5.43;;
85695;SDS011;76240;50.902;3.892;2024-02-26T08:53:43;9.70;;;6.13;;
85695;SDS011;76240;50.902;3.892;2024-02-26T08:56:09;9.35;;;6.03;;
85695;SDS011;76240;50.902;3.892;2024-02-26T08:58:42;11.70;;;7.10;;
85695;SDS011;76240;50.902;3.892;2024-02-26T09:01:08;10.38;;;6.70;;
85695;SDS011;76240;50.902;3.892;2024-02-26T09:03:34;9.68;;;6.18;;
85695;SDS011;76240;50.902;3.892;2024-02-26T09:06:01;11.50;;;6.45;;
85695;SDS011;76240;50.902;3.892;2024-02-26T09:08:27;10.80;;;6.18;;
85695;SDS011;76240;50.902;3.892;2024-02-26T09:10:53;9.63;;;5.30;;
85695;SDS011;76240;50.902;3.892;2024-02-26T09:13:19;8.30;;;4.97;;
85695;SDS011;76240;50.902;3.892;2024-02-26T09:15:45;11.77;;;6.93;;
85695;SDS011;76240;50.902;3.892;2024-02-26T09:18:10;10.30;;;5.95;;
85695;SDS011;76240;50.902;3.892;2024-02-26T09:20:36;10.15;;;6.07;;
85695;SDS011;76240;50.902;3.892;2024-02-26T09:23:02;8.98;;;5.60;;
85695;SDS011;76240;50.902;3.892;2024-02-26T09:25:28;9.27;;;5.50;;
85695;SDS011;76240;50.902;3.892;2024-02-26T09:27:54;12.35;;;6.57;;
85695;SDS011;76240;50.902;3.892;2024-02-26T09:30:20;11.52;;;5.50;;
85695;SDS011;76240;50.902;3.892;2024-02-26T09:32:46;11.18;;;6.53;;
85695;SDS011;76240;50.902;3.892;2024-02-26T09:35:15;11.65;;;6.45;;
85695;SDS011;76240;50.902;3.892;2024-02-26T09:37:42;9.70;;;5.95;;
85695;SDS011;76240;50.902;3.892;2024-02-26T09:40:09;11.20;;;6.82;;
85695;SDS011;76240;50.902;3.892;2024-02-26T09:42:43;9.73;;;6.05;;
85695;SDS011;76240;50.902;3.892;2024-02-26T09:45:11;9.83;;;5.57;;
85695;SDS011;76240;50.902;3.892;2024-02-26T09:47:42;10.70;;;7.05;;
85695;SDS011;76240;50.902;3.892;2024-02-26T09:50:09;9.57;;;5.35;;
85695;SDS011;76240;50.902;3.892;2024-02-26T09:52:38;13.45;;;7.43;;
85695;SDS011;76240;50.902;3.892;2024-02-26T09:55:07;11.80;;;7.53;;
85695;SDS011;76240;50.902;3.892;2024-02-26T09:57:36;9.43;;;5.43;;
85695;SDS011;76240;50.902;3.892;2024-02-26T10:00:03;12.40;;;6.55;;
85695;SDS011;76240;50.902;3.892;2024-02-26T10:02:32;8.80;;;5.30;;
85695;SDS011;76240;50.902;3.892;2024-02-26T10:05:02;9.73;;;6.18;;
85695;SDS011;76240;50.902;3.892;2024-02-26T10:07:30;10.15;;;6.15;;
85695;SDS011;76240;50.902;3.892;2024-02-26T10:09:56;9.50;;;5.53;;
85695;SDS011;76240;50.902;3.892;2024-02-26T10:12:22;9.20;;;4.60;;
85695;SDS011;76240;50.902;3.892;2024-02-26T10:14:51;9.70;;;5.93;;
85695;SDS011;76240;50.902;3.892;2024-02-26T10:17:17;10.43;;;6.07;;
85695;SDS011;76240;50.902;3.892;2024-02-26T10:19:45;10.88;;;6.40;;
85695;SDS011;76240;50.902;3.892;2024-02-26T10:22:11;9.68;;;5.47;;
85695;SDS011;76240;50.902;3.892;2024-02-26T10:24:37;12.55;;;6.00;;
85695;SDS011;76240;50.902;3.892;2024-02-26T10:27:03;9.60;;;5.32;;
85695;SDS011;76240;50.902;3.892;2024-02-26T10:29:30;9.50;;;5.32;;
85695;SDS011;76240;50.902;3.892;2024-02-26T10:31:56;10.07;;;5.63;;
85695;SDS011;76240;50.902;3.892;2024-02-26T10:34:22;11.50;;;6.15;;
85695;SDS011;76240;50.902;3.892;2024-02-26T10:36:48;10.75;;;6.80;;
85695;SDS011;76240;50.902;3.892;2024-02-26T10:39:15;12.55;;;6.65;;
85695;SDS011;76240;50.902;3.892;2024-02-26T10:41:41;13.10;;;6.50;;
85695;SDS011;76240;50.902;3.892;2024-02-26T10:44:10;12.73;;;7.72;;
85695;SDS011;76240;50.902;3.892;2024-02-26T10:46:38;11.18;;;7.63;;
85695;SDS011;76240;50.902;3.892;2024-02-26T10:49:12;13.18;;;8.52;;
85695;SDS011;76240;50.902;3.892;2024-02-26T10:51:40;12.55;;;7.38;;
85695;SDS011;76240;50.902;3.892;2024-02-26T10:54:09;11.52;;;7.25;;
85695;SDS011;76240;50.902;3.892;2024-02-26T10:56:39;12.40;;;7.47;;
85695;SDS011;76240;50.902;3.892;2024-02-26T10:59:09;12.57;;;7.40;;
85695;SDS011;76240;50.902;3.892;2024-02-26T11:01:38;11.15;;;6.00;;
85695;SDS011;76240;50.902;3.892;2024-02-26T11:04:06;12.27;;;7.93;;
85695;SDS011;76240;50.902;3.892;2024-02-26T11:06:33;12.75;;;7.93;;
85695;SDS011;76240;50.902;3.892;2024-02-26T11:09:00;12.95;;;7.10;;
85695;SDS011;76240;50.902;3.892;2024-02-26T11:11:27;11.93;;;6.97;;
85695;SDS011;76240;50.902;3.892;2024-02-26T11:13:55;12.20;;;7.57;;
85695;SDS011;76240;50.902;3.892;2024-02-26T11:16:22;9.98;;;5.70;;
85695;SDS011;76240;50.902;3.892;2024-02-26T11:18:49;10.45;;;6.82;;
85695;SDS011;76240;50.902;3.892;2024-02-26T11:21:17;14.07;;;7.90;;
85695;SDS011;76240;50.902;3.892;2024-02-26T11:23:47;12.55;;;7.70;;
85695;SDS011;76240;50.902;3.892;2024-02-26T11:26:14;15.07;;;9.65;;
85695;SDS011;76240;50.902;3.892;2024-02-26T11:28:42;13.40;;;6.13;;
85695;SDS011;76240;50.902;3.892;2024-02-26T11:31:10;10.85;;;7.38;;
85695;SDS011;76240;50.902;3.892;2024-02-26T11:33:37;10.80;;;6.60;;
85695;SDS011;76240;50.902;3.892;2024-02-26T11:36:09;14.30;;;9.02;;
85695;SDS011;76240;50.902;3.892;2024-02-26T11:38:37;11.70;;;6.65;;
85695;SDS011;76240;50.902;3.892;2024-02-26T11:41:04;14.82;;;7.28;;
85695;SDS011;76240;50.902;3.892;2024-02-26T11:43:49;12.85;;;8.27;;
85695;SDS011;76240;50.902;3.892;2024-02-26T11:46:26;10.60;;;6.00;;
85695;SDS011;76240;50.902;3.892;2024-02-26T11:48:58;11.20;;;7.47;;
85695;SDS011;76240;50.902;3.892;2024-02-26T11:51:28;17.08;;;9.43;;
85695;SDS011;76240;50.902;3.892;2024-02-26T11:53:59;12.70;;;7.07;;
85695;SDS011;76240;50.902;3.892;2024-02-26T11:56:25;25.50;;;13.00;;
85695;SDS011;76240;50.902;3.892;2024-02-26T11:59:00;16.75;;;8.52;;
85695;SDS011;76240;50.902;3.892;2024-02-26T12:01:50;16.42;;;9.60;;
85695;SDS011;76240;50.902;3.892;2024-02-26T12:04:18;19.92;;;10.50;;
85695;SDS011;76240;50.902;3.892;2024-02-26T12:06:47;13.48;;;6.95;;
85695;SDS011;76240;50.902;3.892;2024-02-26T12:11:57;12.88;;;7.40;;
85695;SDS011;76240;50.902;3.892;2024-02-26T12:14:27;15.68;;;8.63;;
85695;SDS011;76240;50.902;3.892;2024-02-26T12:16:54;12.18;;;6.95;;
85695;SDS011;76240;50.902;3.892;2024-02-26T12:19:21;13.32;;;8.10;;
85695;SDS011;76240;50.902;3.892;2024-02-26T12:21:51;10.57;;;5.93;;
85695;SDS011;76240;50.902;3.892;2024-02-26T12:24:20;9.95;;;5.78;;
85695;SDS011;76240;50.902;3.892;2024-02-26T12:26:46;12.70;;;6.70;;
85695;SDS011;76240;50.902;3.892;2024-02-26T12:29:12;13.38;;;7.97;;
85695;SDS011;76240;50.902;3.892;2024-02-26T12:31:38;13.90;;;7.35;;
85695;SDS011;76240;50.902;3.892;2024-02-26T12:34:05;17.52;;;8.55;;
85695;SDS011;76240;50.902;3.892;2024-02-26T12:36:33;13.13;;;7.40;;
85695;SDS011;76240;50.902;3.892;2024-02-26T12:39:00;10.75;;;6.32;;
85695;SDS011;76240;50.902;3.892;2024-02-26T12:41:27;10.75;;;6.38;;
85695;SDS011;76240;50.902;3.892;2024-02-26T12:43:55;12.20;;;6.85;;
85695;SDS011;76240;50.902;3.892;2024-02-26T12:46:21;15.13;;;8.45;;
85695;SDS011;76240;50.902;3.892;2024-02-26T12:48:47;16.90;;;8.85;;
85695;SDS011;76240;50.902;3.892;2024-02-26T12:51:13;16.73;;;9.40;;
85695;SDS011;76240;50.902;3.892;2024-02-26T12:53:41;14.00;;;7.88;;
85695;SDS011;76240;50.902;3.892;2024-02-26T12:56:07;15.85;;;8.45;;
85695;SDS011;76240;50.902;3.892;2024-02-26T12:58:35;12.95;;;7.20;;
85695;SDS011;76240;50.902;3.892;2024-02-26T13:01:04;14.23;;;7.78;;
85695;SDS011;76240;50.902;3.892;2024-02-26T13:03:32;11.45;;;6.97;;
85695;SDS011;76240;50.902;3.892;2024-02-26T13:05:59;12.82;;;6.82;;
85695;SDS011;76240;50.902;3.892;2024-02-26T13:08:26;12.00;;;7.38;;
85695;SDS011;76240;50.902;3.892;2024-02-26T13:10:52;13.68;;;8.30;;
85695;SDS011;76240;50.902;3.892;2024-02-26T13:13:18;9.45;;;5.75;;
85695;SDS011;76240;50.902;3.892;2024-02-26T13:15:45;11.27;;;6.20;;
85695;SDS011;76240;50.902;3.892;2024-02-26T13:18:11;10.15;;;5.55;;
85695;SDS011;76240;50.902;3.892;2024-02-26T13:20:40;14.60;;;7.75;;
85695;SDS011;76240;50.902;3.892;2024-02-26T13:23:07;12.63;;;7.32;;
85695;SDS011;76240;50.902;3.892;2024-02-26T13:25:36;10.57;;;5.55;;
85695;SDS011;76240;50.902;3.892;2024-02-26T13:28:06;10.55;;;5.57;;
85695;SDS011;76240;50.902;3.892;2024-02-26T13:30:38;11.02;;;6.28;;
85695;SDS011;76240;50.902;3.892;2024-02-26T13:33:09;9.73;;;5.43;;
85695;SDS011;76240;50.902;3.892;2024-02-26T13:35:35;9.80;;;5.47;;
85695;SDS011;76240;50.902;3.892;2024-02-26T13:38:02;11.82;;;5.82;;
85695;SDS011;76240;50.902;3.892;2024-02-26T13:40:28;9.20;;;5.50;;
85695;SDS011;76240;50.902;3.892;2024-02-26T13:42:55;11.45;;;5.70;;
85695;SDS011;76240;50.902;3.892;2024-02-26T13:45:21;13.48;;;7.63;;
85695;SDS011;76240;50.902;3.892;2024-02-26T13:47:46;10.00;;;6.03;;
85695;SDS011;76240;50.902;3.892;2024-02-26T13:50:12;12.18;;;6.28;;
85695;SDS011;76240;50.902;3.892;2024-02-26T13:52:38;10.48;;;5.63;;
85695;SDS011;76240;50.902;3.892;2024-02-26T13:55:04;11.00;;;6.38;;
85695;SDS011;76240;50.902;3.892;2024-02-26T13:57:30;11.50;;;6.55;;
85695;SDS011;76240;50.902;3.892;2024-02-26T13:59:56;10.60;;;5.95;;
85695;SDS011;76240;50.902;3.892;2024-02-26T14:02:22;12.85;;;6.85;;
85695;SDS011;76240;50.902;3.892;2024-02-26T14:04:48;13.68;;;8.00;;
85695;SDS011;76240;50.902;3.892;2024-02-26T14:07:14;11.23;;;6.53;;
85695;SDS011;76240;50.902;3.892;2024-02-26T14:09:42;12.48;;;7.03;;
85695;SDS011;76240;50.902;3.892;2024-02-26T14:12:09;12.52;;;7.65;;
85695;SDS011;76240;50.902;3.892;2024-02-26T14:14:35;11.60;;;7.20;;
85695;SDS011;76240;50.902;3.892;2024-02-26T14:17:03;10.73;;;6.32;;
85695;SDS011;76240;50.902;3.892;2024-02-26T14:19:29;13.43;;;7.80;;
85695;SDS011;76240;50.902;3.892;2024-02-26T14:21:56;11.85;;;7.43;;
85695;SDS011;76240;50.902;3.892;2024-02-26T14:24:22;12.52;;;7.47;;
85695;SDS011;76240;50.902;3.892;2024-02-26T14:26:48;12.02;;;7.75;;
85695;SDS011;76240;50.902;3.892;2024-02-26T14:29:13;11.40;;;6.30;;
85695;SDS011;76240;50.902;3.892;2024-02-26T14:31:41;10.25;;;5.88;;
85695;SDS011;76240;50.902;3.892;2024-02-26T14:34:07;9.48;;;5.72;;
85695;SDS011;76240;50.902;3.892;2024-02-26T14:36:34;13.55;;;6.95;;
85695;SDS011;76240;50.902;3.892;2024-02-26T14:39:00;11.15;;;6.20;;
85695;SDS011;76240;50.902;3.892;2024-02-26T14:41:26;11.98;;;7.28;;